Time;durP1;ratioP1;P1;durP2;ratioP2;P2;SDS_P1;SDS_P2;PMS_P1;PMS_P2;Temp;Humidity;BMP_temperature;BMP_pressure;BME280_temperature;BME280_humidity;BME280_pressure;Samples;Min_cycle;Max_cycle;Signal;HPM_P1;HPM_P2
2024/04/15 00:01:50;;;;;;;10.17;5.40;;;15.70;99.90;;;;;;5445597;26;20520;-70
2024/04/15 00:04:20;;;;;;;9.50;4.40;;;15.60;99.90;;;;;;5445337;26;20475;-71
2024/04/15 00:06:47;;;;;;;10.00;4.10;;;15.50;99.90;;;;;;5445032;26;20464;-71
2024/04/15 00:09:19;;;;;;;10.70;4.30;;;15.40;99.90;;;;;;5445141;26;20520;-72
2024/04/15 00:11:47;;;;;;;8.97;4.17;;;15.30;99.90;;;;;;5445329;26;20467;-72
2024/04/15 00:14:17;;;;;;;8.90;3.47;;;15.20;99.90;;;;;;5445483;26;20512;-71
2024/04/15 00:16:44;;;;;;;9.33;3.60;;;15.10;99.90;;;;;;5445218;26;20516;-71
2024/04/15 00:19:14;;;;;;;11.63;4.60;;;15.10;99.90;;;;;;5445305;26;20528;-70
2024/04/15 00:21:41;;;;;;;9.90;3.80;;;15.40;99.90;;;;;;5445688;26;20483;-70
2024/04/15 00:24:11;;;;;;;8.10;3.30;;;15.60;99.90;;;;;;5445116;26;20467;-71
2024/04/15 00:26:40;;;;;;;10.67;3.13;;;15.60;99.90;;;;;;5445258;26;20467;-69
2024/04/15 00:29:10;;;;;;;8.47;3.30;;;16.00;99.90;;;;;;5445816;26;20468;-70
2024/04/15 00:31:37;;;;;;;8.67;3.17;;;16.10;99.90;;;;;;5445935;26;20876;-71
2024/04/15 00:34:07;;;;;;;9.60;3.60;;;16.30;99.90;;;;;;5445086;26;21139;-70
2024/04/15 00:36:35;;;;;;;8.00;2.80;;;16.40;99.90;;;;;;5445985;26;20515;-70
2024/04/15 00:39:05;;;;;;;9.87;3.27;;;16.40;99.90;;;;;;5445315;26;20459;-71
2024/04/15 00:41:32;;;;;;;10.63;2.50;;;16.50;99.90;;;;;;5445119;26;20471;-71
2024/04/15 00:44:05;;;;;;;8.30;2.77;;;16.50;99.90;;;;;;5445144;26;20845;-71
2024/04/15 00:46:32;;;;;;;9.10;2.90;;;16.50;99.90;;;;;;5445920;26;20463;-70
2024/04/15 00:49:02;;;;;;;7.50;2.03;;;16.60;99.90;;;;;;5445275;26;20471;-70
2024/04/15 00:51:31;;;;;;;8.50;2.33;;;16.50;99.90;;;;;;5437204;26;20476;-72
2024/04/15 00:54:01;;;;;;;8.00;3.00;;;16.50;99.90;;;;;;5444368;26;21084;-71
2024/04/15 00:56:28;;;;;;;7.70;2.30;;;16.50;99.90;;;;;;5445384;26;20471;-70
2024/04/15 00:58:59;;;;;;;10.97;2.80;;;16.50;99.90;;;;;;5444809;26;20527;-71
2024/04/15 01:01:29;;;;;;;7.67;2.10;;;16.50;99.90;;;;;;5445687;26;20523;-71
2024/04/15 01:03:59;;;;;;;8.10;2.87;;;16.50;99.90;;;;;;5444644;26;20467;-71
2024/04/15 01:06:26;;;;;;;7.97;2.67;;;16.50;99.90;;;;;;5444778;26;20793;-71
2024/04/15 01:08:56;;;;;;;7.47;2.50;;;16.50;99.90;;;;;;5447885;26;20527;-71
2024/04/15 01:11:23;;;;;;;7.97;2.80;;;16.40;99.90;;;;;;5448601;26;20535;-71
2024/04/15 01:13:53;;;;;;;9.37;2.80;;;16.40;99.90;;;;;;5447192;26;20463;-71
2024/04/15 01:16:20;;;;;;;8.77;2.67;;;16.30;99.90;;;;;;5447998;26;20471;-70
2024/04/15 01:18:52;;;;;;;11.43;2.70;;;16.20;99.90;;;;;;5448034;26;20559;-70
2024/04/15 01:21:20;;;;;;;8.20;2.90;;;16.10;99.90;;;;;;5448240;26;20467;-69
2024/04/15 01:23:52;;;;;;;9.57;3.03;;;16.10;99.90;;;;;;5447530;26;20475;-69
2024/04/15 01:26:19;;;;;;;7.90;2.93;;;16.10;99.90;;;;;;5448456;26;20895;-70
2024/04/15 01:28:49;;;;;;;8.20;2.77;;;16.10;99.90;;;;;;5447149;26;20577;-70
2024/04/15 01:31:16;;;;;;;7.30;2.57;;;16.00;99.90;;;;;;5448264;26;20551;-70
2024/04/15 01:33:46;;;;;;;8.83;2.20;;;15.90;99.90;;;;;;5447912;26;20510;-70
2024/04/15 01:36:13;;;;;;;8.00;2.50;;;15.90;99.90;;;;;;5448049;26;20456;-70
2024/04/15 01:38:42;;;;;;;12.13;3.13;;;15.80;99.90;;;;;;5447322;26;20463;-70
2024/04/15 01:41:12;;;;;;;7.33;2.50;;;15.70;99.90;;;;;;5447882;26;20463;-71
2024/04/15 01:43:42;;;;;;;7.90;2.70;;;15.60;99.90;;;;;;5447170;26;20556;-70
2024/04/15 01:46:09;;;;;;;7.63;2.43;;;15.50;99.90;;;;;;5446958;26;20517;-71
2024/04/15 01:48:39;;;;;;;8.73;3.00;;;15.40;99.90;;;;;;5446990;26;20483;-70
2024/04/15 01:51:06;;;;;;;7.50;2.30;;;15.40;99.90;;;;;;5447396;26;20463;-70
2024/04/15 01:53:35;;;;;;;8.60;2.50;;;15.30;99.90;;;;;;5447175;26;20467;-70
2024/04/15 01:56:05;;;;;;;9.57;2.37;;;15.30;99.90;;;;;;5447748;26;20519;-70
2024/04/15 01:58:37;;;;;;;8.70;2.57;;;15.40;99.90;;;;;;5447084;26;20821;-70
2024/04/15 02:01:05;;;;;;;7.47;2.03;;;15.50;99.90;;;;;;5447801;26;21024;-71
2024/04/15 02:03:35;;;;;;;7.23;2.03;;;15.40;99.90;;;;;;5446325;26;20478;-71
2024/04/15 02:06:02;;;;;;;7.60;2.20;;;15.30;99.90;;;;;;5447541;26;20953;-72
2024/04/15 02:08:32;;;;;;;7.83;2.20;;;15.30;99.90;;;;;;5447436;26;21111;-72
2024/04/15 02:10:59;;;;;;;7.20;2.00;;;15.30;99.90;;;;;;5447423;26;20516;-68
2024/04/15 02:13:29;;;;;;;9.80;2.40;;;15.30;99.90;;;;;;5447069;26;20467;-72
2024/04/15 02:15:59;;;;;;;9.30;2.20;;;15.40;99.90;;;;;;5447621;26;21027;-71
2024/04/15 02:18:28;;;;;;;7.83;2.50;;;15.60;99.90;;;;;;5445737;26;20472;-72
2024/04/15 02:20:55;;;;;;;7.80;2.50;;;15.60;99.90;;;;;;5447270;26;20463;-70
2024/04/15 02:23:25;;;;;;;7.70;2.30;;;15.70;99.90;;;;;;5446686;26;20530;-70
2024/04/15 02:25:52;;;;;;;7.10;1.90;;;15.60;99.90;;;;;;5447155;26;20455;-71
2024/04/15 02:28:22;;;;;;;10.80;2.13;;;15.60;99.90;;;;;;5446961;26;20473;-70
2024/04/15 02:30:49;;;;;;;7.70;2.00;;;15.60;99.90;;;;;;5446810;26;20471;-70
2024/04/15 02:33:21;;;;;;;6.73;1.97;;;15.70;99.90;;;;;;5446886;26;21139;-70
2024/04/15 02:35:48;;;;;;;6.93;1.73;;;15.70;99.90;;;;;;5447059;26;20474;-71
2024/04/15 02:38:18;;;;;;;8.17;2.00;;;15.70;99.90;;;;;;5446488;26;20475;-70
2024/04/15 02:40:45;;;;;;;6.83;1.73;;;15.70;99.90;;;;;;5446933;26;20523;-71
2024/04/15 02:43:15;;;;;;;6.87;1.93;;;15.60;99.90;;;;;;5447052;26;20512;-71
2024/04/15 02:45:42;;;;;;;7.70;2.00;;;15.70;99.90;;;;;;5446790;26;21070;-70
2024/04/15 02:48:12;;;;;;;7.43;2.10;;;15.60;99.90;;;;;;5446390;26;20792;-71
2024/04/15 02:50:41;;;;;;;8.33;2.17;;;15.60;99.90;;;;;;5446755;26;20459;-72
2024/04/15 02:53:11;;;;;;;8.07;1.73;;;15.70;99.90;;;;;;5446337;26;20526;-70
2024/04/15 02:55:38;;;;;;;7.77;1.90;;;15.60;99.90;;;;;;5446549;26;20460;-70
2024/04/15 02:58:08;;;;;;;7.93;1.90;;;15.60;99.90;;;;;;5446462;26;20510;-70
2024/04/15 03:00:35;;;;;;;7.20;1.67;;;15.70;99.90;;;;;;5446646;26;20549;-71
2024/04/15 03:03:05;;;;;;;7.30;2.30;;;15.70;99.90;;;;;;5446244;26;20890;-70
2024/04/15 03:05:33;;;;;;;7.33;1.77;;;15.60;99.90;;;;;;5446687;26;20543;-70
2024/04/15 03:08:05;;;;;;;7.17;1.90;;;15.50;99.90;;;;;;5446472;26;20467;-68
2024/04/15 03:10:32;;;;;;;6.90;1.83;;;15.50;99.90;;;;;;5447058;26;20522;-70
2024/04/15 03:13:02;;;;;;;9.03;1.80;;;15.50;99.90;;;;;;5446218;26;21011;-72
2024/04/15 03:15:29;;;;;;;7.37;2.10;;;15.40;99.90;;;;;;5447087;26;21455;-70
2024/04/15 03:17:59;;;;;;;7.70;1.67;;;15.40;99.90;;;;;;5446628;26;21112;-69
2024/04/15 03:20:27;;;;;;;8.43;1.80;;;15.30;99.90;;;;;;5446973;26;20585;-70
2024/04/15 03:22:57;;;;;;;9.57;2.17;;;15.40;99.90;;;;;;5445878;26;20599;-70
2024/04/15 03:25:27;;;;;;;9.93;2.43;;;15.30;99.90;;;;;;5446693;26;20551;-69
2024/04/15 03:27:56;;;;;;;8.93;2.13;;;15.30;99.90;;;;;;5445835;26;21020;-71
2024/04/15 03:30:23;;;;;;;9.87;2.33;;;15.20;99.90;;;;;;5445170;26;20580;-71
2024/04/15 03:32:53;;;;;;;8.17;2.40;;;15.10;99.90;;;;;;5445890;26;20475;-69
2024/04/15 03:35:20;;;;;;;8.07;2.37;;;15.00;99.90;;;;;;5448566;26;20465;-71
2024/04/15 03:37:50;;;;;;;8.50;2.77;;;15.00;99.90;;;;;;5469105;26;20457;-69
2024/04/15 03:40:20;;;;;;;10.70;4.23;;;14.90;99.90;;;;;;5472245;26;20465;-71
2024/04/15 03:42:49;;;;;;;9.73;2.80;;;14.80;99.90;;;;;;5460825;26;20479;-70
2024/04/15 03:45:19;;;;;;;7.83;2.77;;;14.80;99.90;;;;;;5453996;26;20834;-70
2024/04/15 03:47:46;;;;;;;11.80;4.10;;;14.70;99.90;;;;;;5444807;26;20475;-71
2024/04/15 03:50:16;;;;;;;10.10;4.07;;;14.70;99.90;;;;;;5446068;26;20478;-70
2024/04/15 03:52:43;;;;;;;9.27;3.80;;;14.70;99.90;;;;;;5445717;26;20519;-71
2024/04/15 03:55:13;;;;;;;10.03;4.10;;;14.70;99.90;;;;;;5445586;26;20467;-71
2024/04/15 03:57:40;;;;;;;11.13;4.73;;;14.70;99.90;;;;;;5445357;26;20527;-70
2024/04/15 04:00:13;;;;;;;10.57;5.23;;;14.60;99.90;;;;;;5446121;26;21004;-71
2024/04/15 04:02:40;;;;;;;10.87;5.00;;;14.60;99.90;;;;;;5434188;26;20521;-69
2024/04/15 04:05:10;;;;;;;11.37;4.80;;;14.50;99.90;;;;;;5445445;26;20488;-68
2024/04/15 04:07:37;;;;;;;9.37;4.60;;;14.50;99.90;;;;;;5445154;26;20516;-68
2024/04/15 04:10:07;;;;;;;11.10;4.90;;;14.40;99.90;;;;;;5438560;26;20463;-70
2024/04/15 04:12:35;;;;;;;11.60;5.13;;;14.30;99.90;;;;;;5445803;26;20515;-71
2024/04/15 04:15:04;;;;;;;9.77;4.60;;;14.20;99.90;;;;;;5445194;26;20842;-70
2024/04/15 04:17:34;;;;;;;10.30;5.23;;;14.20;99.90;;;;;;5445047;26;20890;-70
2024/04/15 04:20:04;;;;;;;11.40;5.20;;;14.30;99.90;;;;;;5445401;26;20472;-70
2024/04/15 04:22:31;;;;;;;12.70;5.20;;;14.20;99.90;;;;;;5440270;26;20468;-70
2024/04/15 04:25:01;;;;;;;10.70;5.57;;;14.20;99.90;;;;;;5445038;26;20539;-70
2024/04/15 04:27:28;;;;;;;12.90;6.03;;;14.20;99.90;;;;;;5438090;26;20520;-69
2024/04/15 04:29:58;;;;;;;10.10;5.80;;;14.10;99.90;;;;;;5443693;26;20490;-70
2024/04/15 04:32:25;;;;;;;11.93;6.00;;;14.10;99.90;;;;;;5445109;26;21370;-69
2024/04/15 04:34:57;;;;;;;11.90;5.97;;;13.90;99.90;;;;;;5445088;26;20542;-70
2024/04/15 04:37:24;;;;;;;11.13;5.57;;;13.70;99.90;;;;;;5445336;26;20480;-69
2024/04/15 04:39:54;;;;;;;13.43;5.80;;;13.60;99.90;;;;;;5444795;26;21145;-70
2024/04/15 04:42:21;;;;;;;12.73;5.83;;;13.60;99.90;;;;;;5439991;26;20521;-70
2024/04/15 04:44:56;;;;;;;13.90;7.37;;;13.60;99.90;;;;;;5437947;26;20471;-70
2024/04/15 04:47:23;;;;;;;11.40;5.90;;;13.50;99.90;;;;;;5439352;26;20527;-69
2024/04/15 04:49:56;;;;;;;11.47;6.10;;;13.50;99.90;;;;;;5447981;26;21027;-69
2024/04/15 04:52:25;;;;;;;18.50;6.43;;;13.40;99.90;;;;;;5448478;26;20584;-71
2024/04/15 04:54:55;;;;;;;13.57;6.60;;;13.50;99.90;;;;;;5449549;26;21130;-68
2024/04/15 04:57:22;;;;;;;13.67;6.73;;;13.50;99.90;;;;;;5448146;26;20472;-70
2024/04/15 04:59:55;;;;;;;13.03;6.17;;;13.40;99.90;;;;;;5448409;26;20467;-70
2024/04/15 05:02:24;;;;;;;15.97;6.13;;;13.20;99.90;;;;;;5445644;26;20523;-71
2024/04/15 05:04:54;;;;;;;11.63;6.00;;;13.30;99.90;;;;;;5443960;26;21116;-71
2024/04/15 05:07:21;;;;;;;15.03;5.93;;;13.20;99.90;;;;;;5447802;26;20596;-68
2024/04/15 05:09:53;;;;;;;13.20;5.33;;;13.10;99.90;;;;;;5447929;26;20477;-70
2024/04/15 05:12:21;;;;;;;11.37;5.80;;;13.20;99.90;;;;;;5448094;26;20538;-70
2024/04/15 05:14:50;;;;;;;10.90;4.97;;;13.20;99.90;;;;;;5440971;26;21081;-70
2024/04/15 05:17:18;;;;;;;11.03;5.10;;;13.10;99.90;;;;;;5442387;26;20519;-69
2024/04/15 05:19:47;;;;;;;10.30;4.80;;;13.00;99.90;;;;;;5442127;26;21270;-69
2024/04/15 05:22:14;;;;;;;12.20;4.93;;;12.80;99.90;;;;;;5444454;26;20524;-70
2024/04/15 05:24:44;;;;;;;11.00;4.77;;;12.60;99.90;;;;;;5446282;26;20872;-70
2024/04/15 05:27:14;;;;;;;13.50;5.93;;;12.70;99.90;;;;;;5447723;26;20586;-69
2024/04/15 05:29:43;;;;;;;11.10;5.97;;;12.80;99.90;;;;;;5446503;26;20553;-71
2024/04/15 05:32:10;;;;;;;11.00;4.87;;;13.00;99.90;;;;;;5447458;26;21083;-70
2024/04/15 05:34:42;;;;;;;9.10;4.00;;;13.00;99.90;;;;;;5447427;26;20471;-69
2024/04/15 05:37:09;;;;;;;10.23;4.00;;;13.20;99.90;;;;;;5447681;26;20525;-70
2024/04/15 05:39:39;;;;;;;12.47;3.90;;;13.30;99.90;;;;;;5443809;26;20514;-70
2024/04/15 05:42:06;;;;;;;9.17;2.70;;;13.30;99.90;;;;;;5447303;26;21338;-69
2024/04/15 05:44:38;;;;;;;8.30;1.80;;;13.30;99.90;;;;;;5446967;26;20463;-68
2024/04/15 05:47:06;;;;;;;8.73;2.30;;;13.30;99.90;;;;;;5447702;26;21130;-70
2024/04/15 05:49:37;;;;;;;8.00;2.00;;;13.20;99.90;;;;;;5447475;26;20471;-68
2024/04/15 05:52:05;;;;;;;6.77;1.60;;;13.30;99.90;;;;;;5447411;26;21034;-70
2024/04/15 05:54:35;;;;;;;8.47;2.40;;;13.20;99.90;;;;;;5443846;26;21409;-68
2024/04/15 05:57:03;;;;;;;7.10;1.53;;;13.20;99.90;;;;;;5447051;26;20467;-69
2024/04/15 05:59:33;;;;;;;9.10;2.07;;;13.30;99.90;;;;;;5446652;26;20527;-70
2024/04/15 06:02:02;;;;;;;8.33;2.03;;;13.40;99.90;;;;;;5446663;26;20468;-69
2024/04/15 06:04:35;;;;;;;9.97;2.10;;;13.40;99.90;;;;;;5447036;26;20467;-69
2024/04/15 06:07:02;;;;;;;7.10;1.73;;;13.50;99.90;;;;;;5432652;26;20468;-67
2024/04/15 06:09:32;;;;;;;10.23;2.20;;;13.60;99.90;;;;;;5447348;26;20635;-68
2024/04/15 06:11:59;;;;;;;8.10;2.00;;;13.60;99.90;;;;;;5447260;26;21031;-69
2024/04/15 06:14:29;;;;;;;7.73;2.00;;;13.50;99.90;;;;;;5447632;26;21087;-69
2024/04/15 06:16:57;;;;;;;7.50;1.67;;;13.60;99.90;;;;;;5447042;26;20468;-69
2024/04/15 06:19:30;;;;;;;8.80;1.93;;;13.60;99.90;;;;;;5446444;26;20523;-69
2024/04/15 06:22:00;;;;;;;8.73;1.57;;;13.70;99.90;;;;;;5446663;26;20516;-71
2024/04/15 06:24:30;;;;;;;8.60;1.43;;;13.80;99.90;;;;;;5446930;26;20470;-70
2024/04/15 06:26:58;;;;;;;7.80;2.20;;;13.90;99.90;;;;;;5447366;26;20560;-70
2024/04/15 06:29:27;;;;;;;9.57;2.07;;;13.80;99.90;;;;;;5447010;26;20468;-69
2024/04/15 06:31:54;;;;;;;11.30;1.70;;;13.80;99.90;;;;;;5447068;26;20467;-69
2024/04/15 06:34:26;;;;;;;8.83;1.60;;;13.90;99.90;;;;;;5446857;26;20467;-71
2024/04/15 06:36:57;;;;;;;9.90;2.40;;;13.80;99.90;;;;;;5447202;26;20531;-70
2024/04/15 06:39:27;;;;;;;7.37;1.47;;;13.70;99.90;;;;;;5446642;26;20475;-70
2024/04/15 06:41:54;;;;;;;11.67;2.37;;;13.70;99.90;;;;;;5447168;26;20463;-69
2024/04/15 06:44:24;;;;;;;7.40;1.97;;;13.70;99.90;;;;;;5446855;26;20513;-69
2024/04/15 06:46:51;;;;;;;7.17;1.50;;;13.80;99.90;;;;;;5446808;26;20470;-68
2024/04/15 06:49:21;;;;;;;7.90;1.30;;;13.70;99.90;;;;;;5445108;26;20812;-68
2024/04/15 06:51:48;;;;;;;8.23;1.73;;;13.70;99.90;;;;;;5445004;26;20463;-69
2024/04/15 06:54:21;;;;;;;7.17;1.70;;;13.60;99.90;;;;;;5444603;26;21100;-71
2024/04/15 06:56:48;;;;;;;7.47;1.70;;;13.60;99.90;;;;;;5445220;26;20486;-70
2024/04/15 06:59:18;;;;;;;8.53;2.00;;;13.50;99.90;;;;;;5445018;26;20530;-68
2024/04/15 07:01:45;;;;;;;8.30;2.03;;;13.50;99.90;;;;;;5446529;26;20475;-69
2024/04/15 07:04:15;;;;;;;7.80;2.03;;;13.50;99.90;;;;;;5446220;26;20475;-71
2024/04/15 07:06:42;;;;;;;9.90;2.07;;;13.60;99.90;;;;;;5446505;26;20518;-71
2024/04/15 07:09:16;;;;;;;8.50;2.20;;;13.60;99.90;;;;;;5446902;26;21032;-70
2024/04/15 07:11:46;;;;;;;8.40;1.93;;;13.60;99.90;;;;;;5446642;26;20834;-70
2024/04/15 07:14:16;;;;;;;9.73;2.00;;;13.70;99.90;;;;;;5446209;26;21140;-69
2024/04/15 07:16:43;;;;;;;7.40;1.63;;;13.70;99.90;;;;;;5446445;26;20507;-70
2024/04/15 07:19:14;;;;;;;10.07;1.97;;;13.80;99.90;;;;;;5447131;26;20519;-69
2024/04/15 07:21:41;;;;;;;8.40;2.53;;;13.80;99.90;;;;;;5447912;26;20922;-68
2024/04/15 07:24:11;;;;;;;8.37;2.27;;;13.90;99.90;;;;;;5447233;26;20473;-70
2024/04/15 07:26:40;;;;;;;8.63;2.50;;;13.90;99.90;;;;;;5446879;26;20501;-69
2024/04/15 07:29:13;;;;;;;9.33;2.10;;;14.00;99.90;;;;;;5445861;26;20538;-70
2024/04/15 07:31:40;;;;;;;9.83;2.43;;;14.00;99.90;;;;;;5446605;26;21025;-70
2024/04/15 07:34:10;;;;;;;9.37;2.13;;;14.00;99.90;;;;;;5447028;26;20523;-70
2024/04/15 07:36:37;;;;;;;8.37;2.20;;;14.00;99.90;;;;;;5446967;26;20509;-70
2024/04/15 07:39:07;;;;;;;9.00;2.40;;;14.00;99.90;;;;;;5446881;26;20600;-70
2024/04/15 07:41:34;;;;;;;11.00;2.77;;;14.10;99.90;;;;;;5447013;26;20606;-70
2024/04/15 07:44:04;;;;;;;11.77;3.03;;;14.10;99.90;;;;;;5446561;26;20852;-71
2024/04/15 07:46:33;;;;;;;8.50;3.30;;;14.20;99.90;;;;;;5446698;26;20474;-71
2024/04/15 07:49:03;;;;;;;12.60;3.67;;;14.00;99.90;;;;;;5446182;26;20531;-70
2024/04/15 07:51:30;;;;;;;8.93;2.77;;;14.00;99.90;;;;;;5446371;26;20487;-70
2024/04/15 07:54:00;;;;;;;8.27;2.90;;;14.00;99.90;;;;;;5445718;26;20475;-71
2024/04/15 07:56:27;;;;;;;9.43;3.00;;;14.00;99.90;;;;;;5446008;26;20469;-70
2024/04/15 07:58:57;;;;;;;9.20;2.73;;;14.10;99.90;;;;;;5445592;26;20532;-70
2024/04/15 08:01:24;;;;;;;8.30;3.30;;;14.10;99.90;;;;;;5445820;26;20470;-70
2024/04/15 08:03:56;;;;;;;11.73;4.07;;;14.10;99.90;;;;;;5445504;26;20590;-71
2024/04/15 08:06:24;;;;;;;8.67;3.13;;;13.90;99.90;;;;;;5446024;26;21047;-70
2024/04/15 08:08:54;;;;;;;10.80;3.83;;;13.80;99.90;;;;;;5445254;26;21357;-70
2024/04/15 08:11:21;;;;;;;13.23;4.00;;;13.80;99.90;;;;;;5446019;26;20572;-70
2024/04/15 08:13:51;;;;;;;10.33;3.70;;;13.70;99.90;;;;;;5445505;26;20527;-71
2024/04/15 08:16:18;;;;;;;11.30;4.83;;;13.80;99.90;;;;;;5445255;26;20475;-70
2024/04/15 08:18:50;;;;;;;10.50;4.40;;;13.80;99.90;;;;;;5445083;26;20455;-71
2024/04/15 08:21:20;;;;;;;11.00;4.30;;;13.60;99.90;;;;;;5445966;26;20527;-70
2024/04/15 08:23:50;;;;;;;12.90;4.83;;;13.50;99.90;;;;;;5445085;26;21016;-69
2024/04/15 08:26:17;;;;;;;12.20;4.73;;;13.40;99.90;;;;;;5445607;26;20475;-70
2024/04/15 08:28:47;;;;;;;11.97;4.50;;;13.30;99.90;;;;;;5444987;26;20479;-70
2024/04/15 08:31:14;;;;;;;11.40;4.90;;;13.20;99.90;;;;;;5445635;26;20519;-71
2024/04/15 08:33:44;;;;;;;12.70;5.10;;;13.30;99.90;;;;;;5445226;26;20467;-69
2024/04/15 08:36:12;;;;;;;12.30;4.63;;;13.50;99.90;;;;;;5445574;26;20468;-71
2024/04/15 08:38:46;;;;;;;14.27;5.13;;;13.70;99.90;;;;;;5445180;26;20463;-71
2024/04/15 08:41:28;;;;;;;11.30;4.60;;;13.80;99.90;;;;;;5445597;26;21016;-70
2024/04/15 08:44:04;;;;;;;13.07;5.83;;;13.70;99.90;;;;;;5444893;26;20503;-70
2024/04/15 08:46:43;;;;;;;11.03;5.30;;;13.60;99.90;;;;;;5445849;26;20482;-71
2024/04/15 08:49:16;;;;;;;10.27;4.90;;;13.60;99.90;;;;;;5445495;26;21348;-70
2024/04/15 08:51:44;;;;;;;15.93;5.10;;;13.70;99.90;;;;;;5445336;26;20475;-70
2024/04/15 08:54:16;;;;;;;12.40;5.20;;;13.90;99.90;;;;;;5444848;26;20498;-70
2024/04/15 08:56:46;;;;;;;10.30;4.90;;;14.20;99.90;;;;;;5444961;26;20829;-71
2024/04/15 08:59:17;;;;;;;13.40;4.23;;;14.50;99.90;;;;;;5444719;26;20481;-71
2024/04/15 09:01:46;;;;;;;13.23;4.73;;;14.90;99.90;;;;;;5445034;26;20457;-70
2024/04/15 09:04:17;;;;;;;10.83;4.77;;;14.90;99.90;;;;;;5445147;26;20464;-70
2024/04/15 09:06:44;;;;;;;11.80;4.60;;;15.10;99.90;;;;;;5445375;26;20499;-71
2024/04/15 09:09:18;;;;;;;14.70;5.60;;;15.40;99.90;;;;;;5444499;26;20479;-71
2024/04/15 09:11:48;;;;;;;11.70;4.70;;;15.70;99.90;;;;;;5444972;26;20514;-70
2024/04/15 09:14:23;;;;;;;11.63;4.60;;;16.10;99.90;;;;;;5444648;26;20513;-70
2024/04/15 09:16:52;;;;;;;11.97;4.83;;;16.10;99.90;;;;;;5444867;26;20464;-71
2024/04/15 09:19:25;;;;;;;12.77;4.50;;;16.10;99.90;;;;;;5444464;26;20531;-70
2024/04/15 09:21:57;;;;;;;10.83;4.23;;;15.90;99.90;;;;;;5444678;26;21014;-71
2024/04/15 09:24:30;;;;;;;9.17;3.60;;;15.60;99.90;;;;;;5444757;26;20470;-71
2024/04/15 09:26:57;;;;;;;9.40;3.93;;;15.60;99.90;;;;;;5444514;26;20513;-71
2024/04/15 09:29:27;;;;;;;10.03;4.33;;;15.90;99.90;;;;;;5445790;26;20595;-71
2024/04/15 09:31:55;;;;;;;11.07;5.07;;;16.10;99.90;;;;;;5448556;26;20474;-70
2024/04/15 09:34:25;;;;;;;9.37;3.77;;;15.90;99.90;;;;;;5448032;26;20474;-71
2024/04/15 09:36:54;;;;;;;11.60;4.73;;;16.00;99.90;;;;;;5448222;26;20543;-71
2024/04/15 09:39:24;;;;;;;11.23;4.20;;;16.20;99.90;;;;;;5448257;26;20511;-70
2024/04/15 09:41:56;;;;;;;10.40;3.93;;;16.60;99.90;;;;;;5448044;26;20467;-70
2024/04/15 09:44:29;;;;;;;13.17;5.43;;;16.80;99.90;;;;;;5447904;26;21036;-70
2024/04/15 09:46:57;;;;;;;9.43;4.27;;;16.90;99.90;;;;;;5448233;26;21228;-70
2024/04/15 09:49:28;;;;;;;9.87;3.20;;;16.70;99.90;;;;;;5447782;26;20527;-70
2024/04/15 09:52:02;;;;;;;8.80;3.67;;;16.30;99.90;;;;;;5447943;26;20534;-71
2024/04/15 09:54:33;;;;;;;12.47;4.50;;;15.90;99.90;;;;;;5447853;26;20478;-69
2024/04/15 09:57:10;;;;;;;10.13;3.90;;;15.50;99.90;;;;;;5448075;26;20461;-69
2024/04/15 09:59:41;;;;;;;9.93;3.57;;;15.30;99.90;;;;;;5448007;26;20604;-70
2024/04/15 10:02:23;;;;;;;8.23;3.70;;;15.20;99.90;;;;;;5447976;26;20541;-70
2024/04/15 10:04:55;;;;;;;12.53;3.87;;;15.20;99.90;;;;;;5447218;26;20595;-70
2024/04/15 10:07:26;;;;;;;8.67;4.00;;;15.10;99.90;;;;;;5447937;26;21430;-70
2024/04/15 10:09:58;;;;;;;9.37;4.00;;;15.20;99.90;;;;;;5447609;26;20470;-70
2024/04/15 10:12:28;;;;;;;10.97;4.33;;;15.40;99.90;;;;;;5447813;26;20606;-71
2024/04/15 10:14:58;;;;;;;8.53;3.73;;;15.40;99.90;;;;;;5447635;26;20464;-71
2024/04/15 10:17:26;;;;;;;8.87;3.67;;;15.50;99.90;;;;;;5447895;26;20551;-71
2024/04/15 10:19:56;;;;;;;10.60;3.80;;;15.90;99.90;;;;;;5447715;26;20596;-71
2024/04/15 10:22:27;;;;;;;8.70;2.93;;;16.80;99.90;;;;;;5447690;26;21000;-70
2024/04/15 10:24:58;;;;;;;9.73;2.80;;;17.70;99.90;;;;;;5447251;26;20909;-71
2024/04/15 10:27:27;;;;;;;9.60;3.03;;;18.50;99.90;;;;;;5447358;26;20479;-70
2024/04/15 10:29:57;;;;;;;9.23;2.80;;;18.40;99.90;;;;;;5447681;26;20476;-70
2024/04/15 10:32:25;;;;;;;9.20;2.57;;;18.40;99.90;;;;;;5447650;26;20471;-71
2024/04/15 10:34:56;;;;;;;8.13;2.77;;;18.20;99.90;;;;;;5446915;26;20907;-71
2024/04/15 10:37:29;;;;;;;9.87;3.07;;;17.50;99.90;;;;;;5447194;26;20467;-71
2024/04/15 10:40:03;;;;;;;8.53;2.87;;;17.00;99.90;;;;;;5446675;26;20467;-70
2024/04/15 10:42:33;;;;;;;8.67;2.50;;;16.70;99.90;;;;;;5447075;26;21530;-70
2024/04/15 10:45:04;;;;;;;7.63;1.90;;;16.70;99.90;;;;;;5446848;26;20519;-71
2024/04/15 10:47:31;;;;;;;8.47;1.73;;;16.70;99.90;;;;;;5446705;26;21015;-72
2024/04/15 10:50:00;;;;;;;8.03;2.07;;;16.50;99.90;;;;;;5447143;26;20471;-70
2024/04/15 10:52:28;;;;;;;6.90;1.80;;;16.30;99.90;;;;;;5447304;26;20467;-71
2024/04/15 10:54:58;;;;;;;8.33;2.00;;;16.30;99.90;;;;;;5446471;26;20480;-71
2024/04/15 10:57:25;;;;;;;7.73;2.10;;;16.40;99.90;;;;;;5446821;26;20475;-70
2024/04/15 10:59:58;;;;;;;8.70;2.03;;;16.40;99.90;;;;;;5447431;26;20459;-70
2024/04/15 11:02:25;;;;;;;9.77;2.23;;;16.30;99.90;;;;;;5447615;26;20471;-70
2024/04/15 11:04:55;;;;;;;7.97;2.07;;;16.40;99.90;;;;;;5446673;26;20463;-69
2024/04/15 11:07:22;;;;;;;7.70;1.73;;;16.60;99.90;;;;;;5447561;26;20520;-69
2024/04/15 11:09:52;;;;;;;7.10;1.77;;;16.70;99.90;;;;;;5447058;26;20460;-70
2024/04/15 11:12:19;;;;;;;6.90;1.77;;;16.70;99.90;;;;;;5447168;26;20479;-72
2024/04/15 11:14:58;;;;;;;10.10;2.20;;;16.90;99.90;;;;;;5446706;26;20459;-70
2024/04/15 11:17:25;;;;;;;8.73;1.77;;;17.10;99.90;;;;;;5446505;26;20626;-71
2024/04/15 11:20:02;;;;;;;7.83;2.13;;;17.10;99.90;;;;;;5446561;26;20802;-70
2024/04/15 11:22:29;;;;;;;7.27;1.67;;;17.20;99.90;;;;;;5446664;26;20584;-72
2024/04/15 11:25:00;;;;;;;7.70;1.57;;;17.20;99.90;;;;;;5445883;26;21361;-71
2024/04/15 11:27:31;;;;;;;7.77;1.47;;;16.90;99.90;;;;;;5446056;26;20456;-70
2024/04/15 11:30:07;;;;;;;9.90;2.00;;;17.00;99.90;;;;;;5446241;26;20475;-71
2024/04/15 11:32:34;;;;;;;7.60;1.50;;;17.20;99.90;;;;;;5446382;26;20467;-70
2024/04/15 11:35:06;;;;;;;7.77;1.53;;;17.50;99.90;;;;;;5445819;26;20820;-71
2024/04/15 11:37:33;;;;;;;8.50;1.60;;;17.50;99.90;;;;;;5445787;26;20557;-70
2024/04/15 11:40:03;;;;;;;7.43;1.50;;;17.50;99.90;;;;;;5446071;26;20464;-70
2024/04/15 11:42:31;;;;;;;7.90;1.50;;;17.30;99.90;;;;;;5446108;26;20577;-70
2024/04/15 11:45:07;;;;;;;9.63;1.70;;;17.30;99.90;;;;;;5445664;26;20455;-71
2024/04/15 11:47:34;;;;;;;7.90;1.50;;;17.40;99.90;;;;;;5445805;26;20625;-69
2024/04/15 11:50:05;;;;;;;7.70;1.50;;;17.30;99.90;;;;;;5446070;26;20519;-70
2024/04/15 11:52:35;;;;;;;11.23;2.10;;;17.30;99.90;;;;;;5444461;26;20535;-70
2024/04/15 11:55:02;;;;;;;9.23;1.90;;;17.20;99.90;;;;;;5445574;26;20516;-72
2024/04/15 11:57:33;;;;;;;8.00;1.77;;;17.00;99.90;;;;;;5445469;26;20478;-71
2024/04/15 12:00:03;;;;;;;10.10;1.80;;;17.10;99.90;;;;;;5445927;26;20467;-72
2024/04/15 12:02:33;;;;;;;8.17;1.90;;;16.90;99.90;;;;;;5445960;26;20577;-71
2024/04/15 12:05:00;;;;;;;7.17;1.50;;;16.80;99.90;;;;;;5445472;26;20471;-72
2024/04/15 12:07:30;;;;;;;8.30;2.20;;;17.00;99.90;;;;;;5446257;26;20585;-71
2024/04/15 12:09:58;;;;;;;7.03;1.30;;;17.30;99.90;;;;;;5445551;26;21070;-71
2024/04/15 12:12:27;;;;;;;8.43;1.37;;;17.70;99.90;;;;;;5445809;26;20867;-71
2024/04/15 12:14:54;;;;;;;9.43;2.00;;;18.20;99.90;;;;;;5445219;26;20475;-70
2024/04/15 12:17:27;;;;;;;11.13;1.97;;;19.20;99.90;;;;;;5445657;26;20464;-71
2024/04/15 12:19:54;;;;;;;7.00;1.20;;;20.60;98.60;;;;;;5445595;26;20890;-71
2024/04/15 12:22:24;;;;;;;9.27;1.90;;;21.20;96.10;;;;;;5445398;26;20459;-72
2024/04/15 12:24:51;;;;;;;8.80;1.80;;;20.60;94.00;;;;;;5444874;26;20471;-71
2024/04/15 12:27:36;;;;;;;8.47;1.37;;;20.10;93.50;;;;;;5445093;26;20475;-71
2024/04/15 12:30:09;;;;;;;10.17;1.60;;;20.60;91.60;;;;;;5445502;26;20521;-71
2024/04/15 12:32:42;;;;;;;8.47;1.80;;;20.70;92.30;;;;;;5445169;26;21456;-71
2024/04/15 12:35:10;;;;;;;8.23;1.60;;;19.90;89.40;;;;;;5445026;26;20463;-70
2024/04/15 12:37:40;;;;;;;7.60;1.33;;;18.90;91.40;;;;;;5444848;26;20511;-71
2024/04/15 12:40:09;;;;;;;8.17;1.80;;;18.40;92.40;;;;;;5445093;26;20527;-71
2024/04/15 12:42:39;;;;;;;9.00;1.80;;;17.90;93.00;;;;;;5445071;26;20549;-72
2024/04/15 12:45:06;;;;;;;6.90;1.10;;;17.70;94.70;;;;;;5444669;26;20516;-70
2024/04/15 12:47:36;;;;;;;8.27;1.50;;;17.60;94.40;;;;;;5444824;26;20467;-70
2024/04/15 12:50:07;;;;;;;8.27;2.30;;;17.60;94.30;;;;;;5444705;26;20592;-71
2024/04/15 12:52:36;;;;;;;8.93;1.50;;;17.60;95.70;;;;;;5444818;26;20528;-71
2024/04/15 12:55:04;;;;;;;8.20;1.33;;;17.60;96.10;;;;;;5444782;26;20463;-71